Time;durP1;ratioP1;P1;durP2;ratioP2;P2;SDS_P1;SDS_P2;PMS_P1;PMS_P2;Temp;Humidity;BMP_temperature;BMP_pressure;BME280_temperature;BME280_humidity;BME280_pressure;Samples;Min_cycle;Max_cycle;Signal;HPM_P1;HPM_P2
2022/10/03 00:01:50;;;;;;;4.70;2.20;;;15.80;49.80;;;;;;4955004;29;20185;-41
2022/10/03 00:04:53;;;;;;;5.15;2.58;;;15.80;50.00;;;;;;4954981;29;20208;-42
2022/10/03 00:07:31;;;;;;;7.10;2.45;;;15.80;50.00;;;;;;4938171;29;20188;-43
2022/10/03 00:10:07;;;;;;;6.80;2.60;;;15.80;50.00;;;;;;4954897;29;20810;-42
2022/10/03 00:12:39;;;;;;;6.47;3.25;;;15.80;50.10;;;;;;4954884;29;20648;-43
2022/10/03 00:15:14;;;;;;;4.35;2.30;;;15.90;50.10;;;;;;4946287;29;20292;-42
2022/10/03 00:17:58;;;;;;;6.43;3.05;;;15.90;50.00;;;;;;4935157;29;20169;-42
2022/10/03 00:20:33;;;;;;;9.07;3.15;;;15.90;49.90;;;;;;4935621;29;20185;-42
2022/10/03 00:23:07;;;;;;;6.13;2.97;;;15.80;49.70;;;;;;4935412;29;20197;-44
2022/10/03 00:25:54;;;;;;;6.13;2.78;;;15.80;49.80;;;;;;4934966;29;20181;-44
2022/10/03 00:28:38;;;;;;;5.80;4.03;;;15.80;49.80;;;;;;4935534;29;20298;-42
2022/10/03 00:31:15;;;;;;;8.00;4.03;;;15.80;49.90;;;;;;4935465;29;20562;-43
2022/10/03 00:34:01;;;;;;;7.40;3.47;;;15.70;50.10;;;;;;5015044;28;20268;-43
2022/10/03 00:36:46;;;;;;;6.85;2.83;;;15.70;50.20;;;;;;5014820;28;20206;-43
2022/10/03 00:39:26;;;;;;;5.78;2.45;;;15.70;50.20;;;;;;5015032;28;20174;-43
2022/10/03 00:42:22;;;;;;;7.60;2.53;;;15.70;50.20;;;;;;5015045;28;20205;-43
2022/10/03 00:45:09;;;;;;;11.35;2.80;;;15.70;50.10;;;;;;4945100;28;20224;-42
2022/10/03 00:47:41;;;;;;;13.82;3.05;;;15.70;50.10;;;;;;5014663;28;20170;-43
2022/10/03 00:50:10;;;;;;;8.80;3.03;;;15.70;50.20;;;;;;5015149;28;20266;-43
2022/10/03 00:52:41;;;;;;;8.43;2.78;;;15.70;50.20;;;;;;5014885;28;20257;-42
2022/10/03 00:55:45;;;;;;;7.05;2.50;;;15.70;50.30;;;;;;5014770;28;20196;-42
2022/10/03 00:58:21;;;;;;;10.50;4.68;;;15.70;50.60;;;;;;4997120;28;20186;-43
2022/10/03 01:00:50;;;;;;;8.40;3.03;;;15.60;50.70;;;;;;5014752;28;20178;-42
2022/10/03 01:03:34;;;;;;;19.92;5.70;;;15.70;51.00;;;;;;5014680;28;20207;-44
2022/10/03 01:06:25;;;;;;;5.70;2.67;;;15.70;51.40;;;;;;5013656;28;20162;-43
2022/10/03 01:09:09;;;;;;;13.50;5.65;;;15.70;51.10;;;;;;5014824;28;20155;-43
2022/10/03 01:11:40;;;;;;;13.25;7.35;;;15.70;51.30;;;;;;5014479;28;20623;-42
2022/10/03 01:14:22;;;;;;;7.00;4.78;;;15.80;51.20;;;;;;5014570;28;20217;-42
2022/10/03 01:17:22;;;;;;;25.85;5.85;;;15.80;51.20;;;;;;5013813;28;20163;-42
2022/10/03 01:20:17;;;;;;;15.63;3.00;;;15.90;51.10;;;;;;5000104;28;20216;-43
2022/10/03 01:22:43;;;;;;;10.27;2.40;;;15.90;51.00;;;;;;5014349;28;20179;-43
2022/10/03 01:25:18;;;;;;;5.60;2.47;;;15.90;51.10;;;;;;5014184;28;20163;-44
2022/10/03 01:31:06;;;;;;;10.63;3.38;;;16.00;50.90;;;;;;5014123;28;20170;-42
2022/10/03 01:33:50;;;;;;;7.18;2.42;;;16.00;51.00;;;;;;5013977;28;20198;-42
2022/10/03 01:37:01;;;;;;;11.25;3.28;;;16.00;50.90;;;;;;5013496;28;20189;-41
2022/10/03 01:39:49;;;;;;;5.97;2.50;;;16.00;50.90;;;;;;4996877;28;20274;-43
2022/10/03 01:42:36;;;;;;;15.70;6.22;;;16.00;50.80;;;;;;5013910;28;20258;-42
2022/10/03 01:45:13;;;;;;;5.70;2.50;;;16.00;50.80;;;;;;5013974;28;20206;-41
2022/10/03 01:47:51;;;;;;;9.88;5.13;;;16.00;50.80;;;;;;5013250;28;20170;-42
2022/10/03 01:50:27;;;;;;;12.80;5.05;;;16.00;50.80;;;;;;5013892;28;20197;-43
2022/10/03 01:52:52;;;;;;;12.07;3.85;;;16.00;50.70;;;;;;5013547;28;20181;-42
2022/10/03 01:55:21;;;;;;;10.67;3.10;;;16.00;50.80;;;;;;5013888;28;20167;-41
2022/10/03 01:58:02;;;;;;;12.20;3.95;;;15.90;51.00;;;;;;5013229;28;20174;-42
2022/10/03 02:00:57;;;;;;;12.52;3.40;;;16.00;50.90;;;;;;5013903;28;20353;-42
2022/10/03 02:03:31;;;;;;;11.02;5.00;;;16.00;51.00;;;;;;5013635;28;20241;-41
2022/10/03 02:06:20;;;;;;;11.88;2.88;;;16.00;51.00;;;;;;5012870;28;20166;-42
2022/10/03 02:08:54;;;;;;;6.47;3.33;;;16.00;51.00;;;;;;4985562;28;20547;-44
2022/10/03 02:11:37;;;;;;;13.07;4.45;;;16.00;51.10;;;;;;5013442;28;20174;-43
2022/10/03 02:14:33;;;;;;;9.75;2.60;;;16.00;51.00;;;;;;5013237;28;20920;-42
2022/10/03 02:17:07;;;;;;;4.50;1.98;;;16.10;51.00;;;;;;5012226;28;20189;-42
2022/10/03 02:19:49;;;;;;;7.72;3.20;;;16.00;51.00;;;;;;5013350;28;20178;-42
2022/10/03 02:22:29;;;;;;;11.27;3.22;;;16.00;51.00;;;;;;5013181;28;20250;-43
2022/10/03 02:25:11;;;;;;;9.77;2.60;;;16.00;51.10;;;;;;5012976;28;20206;-42
2022/10/03 02:28:12;;;;;;;9.60;2.22;;;16.00;51.40;;;;;;5012848;28;20500;-42
2022/10/03 02:30:41;;;;;;;8.23;2.67;;;16.10;51.50;;;;;;5012939;28;20158;-44
2022/10/03 02:33:36;;;;;;;9.05;2.40;;;16.00;51.70;;;;;;4995317;28;20200;-42
2022/10/03 02:36:13;;;;;;;6.05;2.53;;;16.00;51.70;;;;;;4995393;28;20190;-42
2022/10/03 02:39:16;;;;;;;9.68;2.60;;;16.00;51.70;;;;;;5013092;28;20229;-42
2022/10/03 02:42:16;;;;;;;6.07;1.73;;;16.00;51.60;;;;;;5012793;28;20171;-41
2022/10/03 02:45:12;;;;;;;6.10;2.05;;;16.00;52.00;;;;;;5012940;28;20214;-42
2022/10/03 02:47:55;;;;;;;7.22;2.20;;;16.00;51.80;;;;;;5012205;28;20169;-42
2022/10/03 02:50:47;;;;;;;4.60;2.65;;;16.10;51.80;;;;;;5012743;28;20163;-42
2022/10/03 02:53:28;;;;;;;6.75;2.83;;;16.00;51.90;;;;;;5011528;28;20210;-42
2022/10/03 02:56:21;;;;;;;7.78;2.70;;;16.00;51.70;;;;;;5012219;28;20171;-42
2022/10/03 02:59:21;;;;;;;11.23;2.83;;;16.10;51.80;;;;;;5012799;28;20185;-43
2022/10/03 03:02:04;;;;;;;9.45;3.05;;;16.10;51.60;;;;;;5012664;28;20178;-42
2022/10/03 03:05:15;;;;;;;5.70;2.72;;;16.10;51.70;;;;;;5012302;28;20207;-42
2022/10/03 03:08:02;;;;;;;9.80;3.88;;;16.10;51.60;;;;;;4981286;28;20539;-43
2022/10/03 03:11:25;;;;;;;9.70;3.45;;;16.10;51.60;;;;;;5012320;28;20269;-42
2022/10/03 03:14:28;;;;;;;18.77;3.63;;;16.10;51.60;;;;;;4932577;29;20340;-41
2022/10/03 03:17:16;;;;;;;6.10;2.75;;;16.10;51.60;;;;;;4931985;29;20597;-43
2022/10/03 03:20:09;;;;;;;9.68;3.20;;;16.10;51.90;;;;;;4932576;29;20189;-43
2022/10/03 03:22:40;;;;;;;10.32;3.72;;;16.10;51.80;;;;;;4932644;29;20182;-42
2022/10/03 03:25:22;;;;;;;8.15;3.50;;;16.10;51.80;;;;;;4932452;29;20573;-43
2022/10/03 03:27:57;;;;;;;5.15;2.95;;;16.10;51.70;;;;;;4932322;29;20244;-42
2022/10/03 03:30:45;;;;;;;12.63;4.05;;;16.10;51.70;;;;;;4936609;29;20169;-42
2022/10/03 03:33:20;;;;;;;10.95;4.07;;;16.10;51.50;;;;;;4936379;29;20260;-41
2022/10/03 03:35:50;;;;;;;9.05;3.40;;;16.10;51.40;;;;;;4935863;29;20235;-41
2022/10/03 03:38:24;;;;;;;12.27;3.38;;;16.10;51.50;;;;;;4936336;29;20627;-42
2022/10/03 03:41:05;;;;;;;11.85;3.83;;;16.20;51.50;;;;;;4936310;29;20158;-42
2022/10/03 03:43:40;;;;;;;12.55;4.13;;;16.10;51.40;;;;;;4939650;28;20300;-42
2022/10/03 03:46:21;;;;;;;8.70;4.38;;;16.10;51.40;;;;;;5015497;28;20154;-43
2022/10/03 03:49:00;;;;;;;11.35;3.47;;;16.10;51.30;;;;;;5016330;28;20562;-42
2022/10/03 03:51:41;;;;;;;8.15;3.35;;;16.00;51.30;;;;;;5015971;28;20213;-44
2022/10/03 03:54:25;;;;;;;8.50;3.50;;;16.00;51.20;;;;;;5015791;28;20222;-43
2022/10/03 03:57:21;;;;;;;9.15;3.50;;;16.10;51.30;;;;;;5015485;28;20186;-41
2022/10/03 04:00:11;;;;;;;5.78;3.90;;;16.10;51.20;;;;;;4999083;28;20189;-43
2022/10/03 04:02:44;;;;;;;7.35;3.17;;;16.10;51.20;;;;;;5016003;28;20527;-41
2022/10/03 04:05:26;;;;;;;10.93;4.50;;;16.10;51.40;;;;;;5015690;28;20185;-41
2022/10/03 04:08:18;;;;;;;13.43;4.00;;;16.10;51.40;;;;;;5015148;28;20199;-43
2022/10/03 04:10:49;;;;;;;7.95;3.00;;;16.10;51.20;;;;;;5015250;28;20174;-42
2022/10/03 04:13:27;;;;;;;10.00;3.40;;;16.10;51.10;;;;;;5015487;28;20671;-43
2022/10/03 04:16:04;;;;;;;7.32;3.42;;;16.10;51.10;;;;;;5014966;28;20178;-42
2022/10/03 04:19:02;;;;;;;13.55;3.63;;;16.20;51.10;;;;;;5015471;28;20194;-41
2022/10/03 04:21:49;;;;;;;10.80;3.65;;;16.20;51.10;;;;;;5015788;28;20201;-42
2022/10/03 04:24:35;;;;;;;7.05;3.17;;;16.20;51.00;;;;;;5015378;28;20214;-43
2022/10/03 04:27:16;;;;;;;10.27;3.75;;;16.20;50.90;;;;;;5015276;28;20269;-44
2022/10/03 04:29:42;;;;;;;11.48;3.97;;;16.10;50.80;;;;;;5015205;28;20186;-43
2022/10/03 04:32:22;;;;;;;10.30;3.25;;;16.20;51.30;;;;;;5015424;28;20183;-42
2022/10/03 04:35:03;;;;;;;6.55;3.85;;;16.10;51.00;;;;;;4997634;28;20691;-41
2022/10/03 04:38:04;;;;;;;10.43;3.63;;;16.10;51.20;;;;;;5014616;28;20907;-41
2022/10/03 04:40:42;;;;;;;11.70;4.75;;;16.10;51.10;;;;;;5014389;28;20518;-42
2022/10/03 04:43:14;;;;;;;9.05;4.00;;;16.10;51.30;;;;;;5015059;28;20214;-42
2022/10/03 04:45:55;;;;;;;5.80;3.50;;;16.10;51.30;;;;;;5014228;28;20701;-42
2022/10/03 04:48:27;;;;;;;4.60;3.60;;;16.10;51.30;;;;;;5015139;28;20170;-43
2022/10/03 04:51:38;;;;;;;9.90;4.85;;;16.10;51.50;;;;;;5015094;28;20167;-43
2022/10/03 04:54:47;;;;;;;7.97;4.22;;;16.00;51.40;;;;;;5014695;28;20679;-43
2022/10/03 04:57:27;;;;;;;8.20;3.65;;;16.00;51.30;;;;;;4996582;28;20216;-43
2022/10/03 04:59:56;;;;;;;9.90;3.75;;;16.00;51.40;;;;;;5014786;28;20187;-41
2022/10/03 05:02:33;;;;;;;11.68;3.78;;;16.00;51.40;;;;;;5014731;28;20170;-43
2022/10/03 05:05:24;;;;;;;27.25;5.85;;;16.00;51.30;;;;;;5014477;28;20237;-43
2022/10/03 05:08:30;;;;;;;9.75;5.25;;;16.00;51.90;;;;;;5013752;28;20527;-44
2022/10/03 05:11:17;;;;;;;12.63;3.70;;;16.10;51.10;;;;;;5014497;28;20205;-43
2022/10/03 05:13:59;;;;;;;14.02;7.65;;;16.10;51.10;;;;;;5014299;28;20684;-42
2022/10/03 05:16:48;;;;;;;8.25;4.32;;;16.10;51.30;;;;;;5013777;28;20685;-42
2022/10/03 05:19:42;;;;;;;13.52;4.95;;;16.10;51.30;;;;;;5014324;28;20377;-42
2022/10/03 05:22:22;;;;;;;11.98;4.57;;;16.00;51.40;;;;;;5014405;28;20192;-43
2022/10/03 05:25:20;;;;;;;13.30;5.07;;;16.00;51.40;;;;;;5014117;28;20682;-43
2022/10/03 05:28:11;;;;;;;12.18;5.85;;;16.00;51.50;;;;;;5013923;28;20178;-42
2022/10/03 05:31:10;;;;;;;13.57;5.05;;;16.00;51.50;;;;;;5014300;28;20602;-42
2022/10/03 05:34:17;;;;;;;9.88;4.25;;;16.00;51.70;;;;;;4988098;28;20293;-42
2022/10/03 05:37:16;;;;;;;5.15;4.05;;;16.00;51.60;;;;;;4933644;29;20193;-42
2022/10/03 05:40:01;;;;;;;11.65;3.72;;;16.00;51.60;;;;;;5014102;28;20207;-41
2022/10/03 05:42:44;;;;;;;12.52;3.80;;;16.00;51.60;;;;;;5013860;28;20170;-42
2022/10/03 05:45:34;;;;;;;14.25;4.47;;;16.00;51.60;;;;;;5013906;28;20158;-42
2022/10/03 05:48:17;;;;;;;8.65;3.95;;;16.00;51.60;;;;;;4996230;28;20740;-43
2022/10/03 05:50:58;;;;;;;11.05;3.95;;;16.00;51.60;;;;;;5013727;28;20229;-42
2022/10/03 05:53:54;;;;;;;9.73;3.63;;;16.10;51.70;;;;;;4995130;28;20214;-43
2022/10/03 05:56:28;;;;;;;6.82;3.50;;;16.10;51.60;;;;;;5013063;28;20179;-42
2022/10/03 05:59:31;;;;;;;12.13;3.55;;;16.00;51.70;;;;;;5013541;28;20177;-42
2022/10/03 06:02:05;;;;;;;11.38;3.78;;;16.10;51.80;;;;;;5013829;28;20174;-43
2022/10/03 06:04:52;;;;;;;11.05;2.92;;;16.00;51.70;;;;;;5013269;28;20570;-42
2022/10/03 06:07:43;;;;;;;13.80;3.85;;;16.00;51.80;;;;;;5012714;28;20197;-43
2022/10/03 06:10:48;;;;;;;6.20;3.10;;;16.00;51.70;;;;;;5013554;28;20574;-41
2022/10/03 06:13:20;;;;;;;6.68;3.85;;;16.10;51.80;;;;;;5013223;28;20206;-42
2022/10/03 06:16:21;;;;;;;4.38;2.40;;;16.00;51.90;;;;;;5012626;28;20179;-42
2022/10/03 06:19:16;;;;;;;6.82;2.97;;;16.10;51.80;;;;;;4995701;28;20582;-42
2022/10/03 06:22:06;;;;;;;7.80;3.67;;;16.10;51.90;;;;;;5013130;28;20266;-41
2022/10/03 06:24:35;;;;;;;11.27;4.28;;;16.10;51.90;;;;;;5013269;28;20245;-43
2022/10/03 06:27:36;;;;;;;17.17;4.03;;;16.20;51.90;;;;;;5012804;28;20201;-43
2022/10/03 06:30:30;;;;;;;11.40;4.15;;;16.20;51.90;;;;;;5013034;28;20573;-42
2022/10/03 06:33:27;;;;;;;6.20;2.85;;;16.20;51.90;;;;;;5012708;28;20182;-42
2022/10/03 06:36:31;;;;;;;11.27;5.78;;;16.20;51.80;;;;;;5012575;28;20175;-41
2022/10/03 06:39:18;;;;;;;10.98;4.15;;;16.30;51.80;;;;;;4969235;28;20759;-43
2022/10/03 06:42:06;;;;;;;13.05;4.72;;;16.30;51.90;;;;;;5012810;28;20170;-42
2022/10/03 06:44:55;;;;;;;5.68;3.97;;;16.30;51.70;;;;;;5012648;28;20206;-42
2022/10/03 06:48:01;;;;;;;8.10;5.30;;;16.30;51.70;;;;;;5012377;28;20179;-42
2022/10/03 06:50:27;;;;;;;9.98;4.40;;;16.40;51.70;;;;;;4932918;29;20180;-43
2022/10/03 06:53:28;;;;;;;10.37;3.60;;;16.40;51.70;;;;;;4916802;29;20177;-42
2022/10/03 06:56:22;;;;;;;9.27;4.38;;;16.40;51.70;;;;;;4932280;29;20526;-43
2022/10/03 06:59:24;;;;;;;7.13;3.65;;;16.40;51.70;;;;;;4932885;29;20207;-42
2022/10/03 07:02:17;;;;;;;6.40;4.93;;;16.40;51.70;;;;;;4932780;29;20185;-43
2022/10/03 07:05:11;;;;;;;8.02;3.85;;;16.40;51.60;;;;;;4932305;29;20693;-42
2022/10/03 07:08:20;;;;;;;10.18;4.28;;;16.40;51.60;;;;;;4932179;29;20557;-42
2022/10/03 07:11:04;;;;;;;10.95;4.30;;;16.50;51.60;;;;;;4928580;29;20221;-43
2022/10/03 07:13:50;;;;;;;5.82;4.43;;;16.50;51.50;;;;;;4932662;29;20207;-42
2022/10/03 07:16:56;;;;;;;11.80;5.47;;;16.50;51.40;;;;;;4931943;29;20184;-42
2022/10/03 07:19:42;;;;;;;17.05;5.07;;;16.50;51.30;;;;;;4913225;29;20235;-42
2022/10/03 07:22:23;;;;;;;8.70;4.43;;;16.60;51.30;;;;;;5003484;28;20181;-41
2022/10/03 07:25:08;;;;;;;14.15;4.07;;;16.60;51.20;;;;;;5012162;28;20256;-41
2022/10/03 07:27:58;;;;;;;10.52;4.50;;;16.70;51.30;;;;;;5011812;28;20189;-42
2022/10/03 07:30:29;;;;;;;5.55;4.43;;;16.60;51.20;;;;;;5012203;28;20266;-42
2022/10/03 07:33:06;;;;;;;7.85;4.13;;;16.60;51.60;;;;;;5012124;28;20167;-41
2022/10/03 07:39:19;;;;;;;14.70;5.18;;;16.60;52.00;;;;;;4970798;28;20194;-42
2022/10/03 07:42:02;;;;;;;10.57;3.90;;;16.50;52.20;;;;;;5012140;28;20249;-42
2022/10/03 07:45:05;;;;;;;15.75;5.05;;;16.40;52.20;;;;;;5011970;28;20640;-41
2022/10/03 07:47:54;;;;;;;11.55;4.05;;;16.40;52.80;;;;;;5011416;28;20638;-42
2022/10/03 07:50:51;;;;;;;6.93;4.13;;;16.40;53.10;;;;;;5011918;28;20665;-41
2022/10/03 07:53:25;;;;;;;9.57;4.70;;;16.50;53.30;;;;;;5012036;28;20217;-41
2022/10/03 07:56:10;;;;;;;10.30;4.53;;;16.50;53.40;;;;;;5011335;28;20252;-43
2022/10/03 07:59:06;;;;;;;9.82;4.50;;;16.60;53.20;;;;;;5011972;28;20178;-43
2022/10/03 08:01:47;;;;;;;7.78;4.95;;;16.60;53.10;;;;;;5009439;28;20181;-42
2022/10/03 08:04:51;;;;;;;6.70;3.95;;;16.60;53.40;;;;;;5011779;28;20233;-42
2022/10/03 08:07:19;;;;;;;8.48;4.10;;;16.70;53.20;;;;;;4974155;28;20182;-42
2022/10/03 08:10:11;;;;;;;6.80;4.30;;;16.60;53.00;;;;;;5011839;28;20803;-42
2022/10/03 08:13:08;;;;;;;5.55;3.60;;;16.70;52.90;;;;;;5008073;28;20210;-42
2022/10/03 08:15:54;;;;;;;7.68;3.85;;;16.80;53.10;;;;;;5012580;28;20182;-41
2022/10/03 08:18:43;;;;;;;8.95;4.05;;;16.80;52.90;;;;;;5015392;28;20179;-42
2022/10/03 08:21:17;;;;;;;8.48;5.30;;;16.90;53.20;;;;;;4978447;28;20193;-41
2022/10/03 08:24:16;;;;;;;9.45;4.47;;;16.90;53.10;;;;;;5015535;28;20213;-42
2022/10/03 08:26:57;;;;;;;7.68;4.25;;;16.90;52.60;;;;;;5015006;28;20159;-43
2022/10/03 08:29:29;;;;;;;9.10;4.55;;;16.90;52.80;;;;;;5015605;28;20265;-42
2022/10/03 08:32:32;;;;;;;9.90;4.88;;;16.90;52.70;;;;;;5015405;28;20170;-43
2022/10/03 08:35:23;;;;;;;7.10;4.05;;;17.00;52.60;;;;;;5015088;28;20705;-42
2022/10/03 08:38:00;;;;;;;9.60;4.88;;;17.00;52.50;;;;;;5014677;28;20193;-42
2022/10/03 08:40:55;;;;;;;9.18;3.97;;;17.10;52.70;;;;;;5015419;28;20162;-41
2022/10/03 08:43:55;;;;;;;6.15;5.07;;;17.00;52.60;;;;;;5015276;28;20210;-42
2022/10/03 08:46:39;;;;;;;12.30;4.43;;;17.10;52.60;;;;;;5014354;28;20178;-43
2022/10/03 08:49:53;;;;;;;9.77;4.30;;;17.20;52.20;;;;;;5014814;28;20182;-41
2022/10/03 08:52:49;;;;;;;13.40;4.65;;;17.10;51.60;;;;;;4954683;28;20731;-43
2022/10/03 08:55:21;;;;;;;7.93;4.22;;;17.10;51.30;;;;;;5014825;28;20681;-42
2022/10/03 08:57:59;;;;;;;7.40;3.22;;;17.10;50.20;;;;;;5014542;28;20190;-42
2022/10/03 09:00:46;;;;;;;10.60;4.20;;;17.10;50.80;;;;;;5015039;28;20563;-41
2022/10/03 09:03:56;;;;;;;6.60;4.00;;;17.20;49.20;;;;;;5014405;28;20678;-41
2022/10/03 09:06:43;;;;;;;12.50;4.00;;;17.20;50.70;;;;;;5014457;28;20174;-41
2022/10/03 09:09:52;;;;;;;5.95;3.70;;;17.20;51.00;;;;;;5014897;28;20174;-42
2022/10/03 09:12:48;;;;;;;11.88;3.40;;;17.30;50.30;;;;;;4952818;28;20183;-41
2022/10/03 09:15:17;;;;;;;8.88;6.35;;;17.40;49.80;;;;;;5014743;28;20176;-42
2022/10/03 09:18:06;;;;;;;7.22;3.58;;;17.40;50.50;;;;;;5013928;28;20646;-43
2022/10/03 09:20:41;;;;;;;7.68;3.42;;;17.50;50.60;;;;;;5014385;28;20619;-42
2022/10/03 09:23:42;;;;;;;6.25;3.80;;;17.50;49.90;;;;;;5014127;28;20198;-42
2022/10/03 09:26:11;;;;;;;7.97;3.90;;;17.50;50.20;;;;;;5013640;28;20534;-43
2022/10/03 09:29:05;;;;;;;9.02;3.80;;;17.60;48.00;;;;;;5014184;28;20174;-41
2022/10/03 09:32:09;;;;;;;8.50;3.70;;;17.60;48.10;;;;;;5014046;28;20261;-42
2022/10/03 09:35:02;;;;;;;10.82;4.90;;;17.60;48.60;;;;;;5013961;28;20240;-43
2022/10/03 09:37:37;;;;;;;6.53;4.00;;;17.50;47.90;;;;;;5013398;28;20253;-42
2022/10/03 09:40:33;;;;;;;11.70;3.25;;;17.60;48.20;;;;;;5013901;28;20276;-41
2022/10/03 09:43:18;;;;;;;7.88;3.55;;;17.70;48.40;;;;;;5013764;28;20163;-42
2022/10/03 09:46:02;;;;;;;5.68;3.65;;;17.90;49.20;;;;;;5013328;28;20158;-42
2022/10/03 09:49:05;;;;;;;5.60;2.75;;;18.10;48.90;;;;;;5013781;28;20216;-42
2022/10/03 09:51:46;;;;;;;9.13;2.80;;;18.50;48.90;;;;;;5013705;28;20232;-42
2022/10/03 09:54:42;;;;;;;9.32;2.97;;;18.60;46.70;;;;;;5013612;28;20292;-42
2022/10/03 09:57:37;;;;;;;4.75;3.00;;;18.60;44.60;;;;;;5010086;28;20559;-43
2022/10/03 10:00:18;;;;;;;3.13;2.83;;;18.60;45.60;;;;;;5013680;28;20160;-42
2022/10/03 10:02:47;;;;;;;8.07;3.40;;;18.60;45.90;;;;;;5013251;28;20186;-41
2022/10/03 10:05:56;;;;;;;11.00;3.55;;;18.60;45.30;;;;;;5013586;28;20264;-42
2022/10/03 10:08:34;;;;;;;6.43;2.63;;;18.50;44.20;;;;;;5013262;28;20225;-43
2022/10/03 10:11:03;;;;;;;12.73;3.55;;;18.40;44.60;;;;;;5013361;28;20196;-42
2022/10/03 10:14:06;;;;;;;12.95;4.72;;;18.30;45.30;;;;;;5013235;28;20527;-43
2022/10/03 10:16:41;;;;;;;5.28;2.50;;;18.30;43.60;;;;;;5012798;28;20578;-42
2022/10/03 10:19:25;;;;;;;7.53;3.05;;;18.20;45.50;;;;;;5013538;28;20182;-43
2022/10/03 10:22:05;;;;;;;7.28;3.83;;;18.20;45.70;;;;;;5013470;28;20182;-41
2022/10/03 10:24:55;;;;;;;11.18;3.92;;;18.20;45.60;;;;;;5013290;28;20221;-42
2022/10/03 10:27:45;;;;;;;12.35;4.47;;;18.20;45.80;;;;;;5012541;28;20206;-42
2022/10/03 10:30:34;;;;;;;11.25;3.25;;;18.10;45.70;;;;;;5012977;28;20526;-43
2022/10/03 10:33:14;;;;;;;4.97;2.78;;;18.10;44.90;;;;;;5012020;28;20190;-43
2022/10/03 10:35:58;;;;;;;4.70;2.83;;;18.00;44.80;;;;;;5012375;28;20155;-42
2022/10/03 10:38:49;;;;;;;8.00;3.00;;;18.10;45.30;;;;;;5012352;28;20187;-41
2022/10/03 10:41:36;;;;;;;7.93;2.60;;;18.30;46.40;;;;;;5012865;28;20762;-42
2022/10/03 10:44:28;;;;;;;11.07;3.50;;;18.60;45.90;;;;;;5012697;28;20636;-42
2022/10/03 10:47:05;;;;;;;10.25;3.40;;;18.90;47.10;;;;;;5012122;28;20158;-42
2022/10/03 10:50:08;;;;;;;7.05;3.40;;;19.00;46.20;;;;;;5012782;28;20158;-45
2022/10/03 10:53:05;;;;;;;5.72;2.72;;;19.10;44.80;;;;;;5012743;28;20186;-42
2022/10/03 10:56:08;;;;;;;6.30;2.45;;;19.20;44.50;;;;;;5012187;28;20721;-43
2022/10/03 10:58:46;;;;;;;9.15;3.38;;;19.40;44.60;;;;;;5012508;28;20162;-42
2022/10/03 11:05:34;;;;;;;6.97;2.78;;;19.60;43.00;;;;;;4856414;29;20222;-44
2022/10/03 11:08:36;;;;;;;6.20;3.35;;;19.50;42.00;;;;;;4857793;29;20899;-44
2022/10/03 11:11:07;;;;;;;6.18;3.08;;;19.30;41.70;;;;;;4857716;29;20295;-45
2022/10/03 11:13:55;;;;;;;5.70;2.58;;;19.20;42.00;;;;;;4857466;29;20369;-44
2022/10/03 11:16:39;;;;;;;4.53;2.00;;;19.20;42.70;;;;;;4856916;29;20692;-45
2022/10/03 11:19:19;;;;;;;9.75;1.88;;;19.10;42.80;;;;;;4857649;29;20192;-44
2022/10/03 11:21:51;;;;;;;4.15;2.55;;;19.80;43.20;;;;;;4857540;29;20199;-43
2022/10/03 11:24:35;;;;;;;6.80;2.80;;;19.00;42.60;;;;;;4857433;29;20238;-44
2022/10/03 11:27:05;;;;;;;8.93;2.30;;;19.10;43.10;;;;;;4856917;29;20269;-42
2022/10/03 11:29:50;;;;;;;5.55;2.20;;;19.10;43.60;;;;;;4857395;29;20271;-42
2022/10/03 11:32:37;;;;;;;8.90;3.03;;;19.10;41.80;;;;;;4857429;29;20184;-43
2022/10/03 11:35:21;;;;;;;7.10;2.72;;;19.00;41.00;;;;;;4879530;29;20578;-43
2022/10/03 11:38:01;;;;;;;6.03;3.17;;;19.00;41.50;;;;;;4931972;29;20169;-44
2022/10/03 11:41:02;;;;;;;7.38;2.63;;;19.00;43.10;;;;;;4968583;28;20206;-45
2022/10/03 11:43:49;;;;;;;7.63;2.45;;;19.10;43.10;;;;;;4932188;29;20416;-42
2022/10/03 11:46:29;;;;;;;4.40;2.63;;;19.10;42.70;;;;;;5006605;28;20578;-42
2022/10/03 11:49:17;;;;;;;12.40;2.70;;;19.20;43.10;;;;;;5012112;28;20174;-43
2022/10/03 11:51:54;;;;;;;5.75;2.65;;;19.20;42.90;;;;;;5015567;28;20593;-44
2022/10/03 11:54:33;;;;;;;2.60;1.88;;;19.20;42.60;;;;;;5015843;28;20213;-42
2022/10/03 11:57:26;;;;;;;11.13;3.55;;;19.10;42.10;;;;;;5015340;28;20189;-42
2022/10/03 12:00:15;;;;;;;3.75;2.58;;;19.10;42.40;;;;;;5015731;28;20198;-41
2022/10/03 12:03:12;;;;;;;8.73;3.40;;;19.20;42.80;;;;;;5015820;28;20185;-43
2022/10/03 12:09:04;;;;;;;7.25;2.65;;;19.20;42.70;;;;;;5016027;28;20509;-41
2022/10/03 12:11:44;;;;;;;10.07;3.08;;;19.40;43.20;;;;;;5015671;28;20193;-41
2022/10/03 12:14:16;;;;;;;4.53;2.58;;;19.50;42.50;;;;;;4997790;28;20670;-42
2022/10/03 12:17:09;;;;;;;5.82;3.22;;;19.50;42.60;;;;;;5014960;28;20182;-42
2022/10/03 12:20:01;;;;;;;9.38;2.65;;;19.50;39.70;;;;;;5015640;28;20171;-43
2022/10/03 12:22:49;;;;;;;7.43;2.30;;;19.50;39.60;;;;;;5015428;28;20542;-41
2022/10/03 12:25:23;;;;;;;7.03;3.25;;;19.50;40.60;;;;;;5015482;28;20206;-42
2022/10/03 12:28:10;;;;;;;9.80;3.05;;;19.50;41.70;;;;;;4997148;28;20177;-42
2022/10/03 12:31:12;;;;;;;9.00;2.25;;;19.40;40.90;;;;;;5015629;28;20178;-44
2022/10/03 12:34:15;;;;;;;4.28;2.20;;;19.50;40.90;;;;;;5010675;28;20209;-41
2022/10/03 12:37:00;;;;;;;6.43;2.50;;;19.40;41.00;;;;;;5014583;28;20186;-41
2022/10/03 12:39:34;;;;;;;7.28;2.72;;;19.30;40.80;;;;;;5015098;28;20170;-42
2022/10/03 12:42:21;;;;;;;4.90;1.85;;;19.30;41.80;;;;;;5015070;28;20174;-44
2022/10/03 12:45:28;;;;;;;5.35;2.88;;;19.30;41.90;;;;;;5015127;28;20250;-41
2022/10/03 12:48:22;;;;;;;5.93;2.75;;;19.20;41.50;;;;;;5014785;28;20535;-43
2022/10/03 12:51:23;;;;;;;7.28;2.15;;;19.20;41.80;;;;;;5014832;28;20175;-43
2022/10/03 12:54:27;;;;;;;9.25;2.78;;;19.20;42.00;;;;;;5014839;28;20217;-43
2022/10/03 12:57:14;;;;;;;6.85;3.42;;;19.20;42.30;;;;;;4973951;28;20218;-43
2022/10/03 12:59:43;;;;;;;4.88;2.65;;;19.30;42.70;;;;;;5014779;28;20171;-43
2022/10/03 13:02:23;;;;;;;7.78;3.00;;;19.20;43.00;;;;;;5014412;28;20265;-43
2022/10/03 13:05:28;;;;;;;5.82;2.58;;;19.30;42.50;;;;;;5014596;28;20233;-43
2022/10/03 13:08:31;;;;;;;5.32;1.90;;;19.30;42.50;;;;;;5014223;28;20193;-42
2022/10/03 13:11:18;;;;;;;7.25;1.98;;;19.20;42.60;;;;;;5014780;28;20170;-43
2022/10/03 13:13:55;;;;;;;9.52;2.92;;;19.20;42.80;;;;;;5014431;28;20186;-43
2022/10/03 13:16:31;;;;;;;7.35;2.80;;;19.20;42.70;;;;;;5013906;28;20512;-44
2022/10/03 13:18:58;;;;;;;4.00;1.80;;;19.20;41.90;;;;;;5014423;28;20167;-42
2022/10/03 13:21:27;;;;;;;10.02;2.35;;;19.10;41.60;;;;;;5014314;28;20179;-43
2022/10/03 13:24:33;;;;;;;5.20;2.05;;;19.20;42.40;;;;;;5014036;28;20210;-42
2022/10/03 13:27:28;;;;;;;8.57;2.65;;;19.20;42.30;;;;;;4995891;28;20270;-44
2022/10/03 13:30:27;;;;;;;7.78;2.40;;;19.20;42.00;;;;;;5014084;28;20202;-43
2022/10/03 13:33:13;;;;;;;9.98;2.33;;;19.20;41.50;;;;;;5000981;28;20187;-43
2022/10/03 13:36:04;;;;;;;6.22;2.20;;;19.20;41.30;;;;;;5013507;28;20162;-42
2022/10/03 13:39:08;;;;;;;6.93;2.00;;;19.30;41.90;;;;;;5014072;28;20159;-43
2022/10/03 13:41:58;;;;;;;7.20;2.08;;;19.40;41.70;;;;;;4999774;28;20185;-42
2022/10/03 13:44:38;;;;;;;5.63;2.47;;;19.50;42.00;;;;;;5014002;28;20256;-43
2022/10/03 13:47:28;;;;;;;4.80;2.15;;;19.60;41.60;;;;;;5013316;28;20170;-43
2022/10/03 13:50:00;;;;;;;6.90;2.20;;;19.70;40.80;;;;;;5013785;28;20266;-44
2022/10/03 13:52:43;;;;;;;4.75;2.08;;;19.60;40.80;;;;;;5013988;28;20538;-42
2022/10/03 13:55:20;;;;;;;3.58;1.90;;;19.60;41.90;;;;;;5013623;28;20274;-43
2022/10/03 13:58:44;;;;;;;5.40;1.92;;;19.60;40.80;;;;;;5013047;28;20729;-43
2022/10/03 14:01:28;;;;;;;8.10;2.92;;;19.60;40.90;;;;;;4933766;29;20185;-42
2022/10/03 14:04:06;;;;;;;8.15;3.60;;;19.50;41.90;;;;;;4933668;29;20213;-43
2022/10/03 14:07:25;;;;;;;7.32;2.35;;;19.40;42.20;;;;;;4933084;29;20184;-42
2022/10/03 14:10:19;;;;;;;5.45;1.98;;;19.30;41.90;;;;;;4895756;29;20546;-42
2022/10/03 14:13:00;;;;;;;7.13;2.03;;;19.30;43.10;;;;;;4894746;29;20175;-42
2022/10/03 14:15:32;;;;;;;3.88;3.25;;;19.20;43.30;;;;;;4895778;29;20657;-43
2022/10/03 14:18:10;;;;;;;5.38;3.08;;;19.20;44.50;;;;;;4895632;29;20269;-43
2022/10/03 14:21:13;;;;;;;7.03;3.35;;;19.10;44.40;;;;;;4895678;29;20185;-43
2022/10/03 14:23:52;;;;;;;8.52;2.63;;;19.10;44.60;;;;;;4895485;29;20342;-43
2022/10/03 14:26:46;;;;;;;4.35;2.40;;;19.10;44.80;;;;;;4894897;29;20667;-43
2022/10/03 14:29:44;;;;;;;5.68;3.05;;;19.10;45.20;;;;;;4879709;29;20554;-42
2022/10/03 14:32:38;;;;;;;3.90;2.28;;;19.10;44.90;;;;;;4917904;29;20309;-43
2022/10/03 14:35:12;;;;;;;3.67;1.83;;;19.00;44.90;;;;;;4933233;29;20213;-41
2022/10/03 14:37:59;;;;;;;4.07;2.03;;;19.00;44.40;;;;;;4932693;29;20193;-43